Time;durP1;ratioP1;P1;durP2;ratioP2;P2;SDS_P1;SDS_P2;PMS_P1;PMS_P2;Temp;Humidity;BMP_temperature;BMP_pressure;BME280_temperature;BME280_humidity;BME280_pressure;Samples;Min_cycle;Max_cycle;Signal;HPM_P1;HPM_P2
2022/12/22 03:26:16;;;;;;;;;;;;;;;4.01;51.91;99095.47;5052845;28;19928;-76
2022/12/22 03:28:41;;;;;;;;;;;;;;;4.00;51.97;99091.22;5035110;28;19917;-75
2022/12/22 03:31:06;;;;;;;;;;;;;;;4.01;52.16;99089.47;5034724;28;19974;-76
2022/12/22 03:33:32;;;;;;;;;;;;;;;3.98;52.30;99085.28;5052790;28;19924;-75
2022/12/22 03:35:57;;;;;;;;;;;;;;;3.97;52.17;99086.19;5035180;28;19924;-75
2022/12/22 03:38:22;;;;;;;;;;;;;;;3.97;52.15;99087.03;5034923;28;19921;-75
2022/12/22 03:40:48;;;;;;;;;;;;;;;3.96;52.31;99087.09;5052490;28;19921;-76
2022/12/22 03:48:41;;;;;;;;;;;;;;;3.95;52.25;99098.31;5037384;28;20074;-76
2022/12/22 03:51:06;;;;;;;;;;;;;;;3.93;52.21;99089.81;5018335;28;19994;-76
2022/12/22 03:53:32;;;;;;;;;;;;;;;3.92;52.34;99088.97;5017843;28;20331;-76
2022/12/22 03:55:57;;;;;;;;;;;;;;;3.91;52.06;99089.88;5034612;28;19999;-77
2022/12/22 03:58:22;;;;;;;;;;;;;;;3.91;51.95;99084.69;5052945;28;19917;-77
2022/12/22 04:00:48;;;;;;;;;;;;;;;3.91;52.25;99081.28;5052496;28;19917;-77
2022/12/22 04:03:13;;;;;;;;;;;;;;;3.90;52.33;99092.53;5034209;28;19923;-76
2022/12/22 04:05:38;;;;;;;;;;;;;;;3.89;52.22;99083.94;5033921;28;19917;-76
2022/12/22 04:08:04;;;;;;;;;;;;;;;3.88;52.26;99079.66;5034313;28;20326;-76
2022/12/22 04:13:13;;;;;;;;;;;;;;;3.89;52.62;99085.66;5037070;28;19924;-76
2022/12/22 04:15:38;;;;;;;;;;;;;;;3.89;52.55;99083.06;5052237;28;19917;-76
2022/12/22 04:18:03;;;;;;;;;;;;;;;3.89;52.32;99083.06;5034160;28;19917;-76
2022/12/22 04:20:29;;;;;;;;;;;;;;;3.87;52.42;99077.97;5052128;28;19923;-75
2022/12/22 04:22:54;;;;;;;;;;;;;;;3.87;52.56;99074.56;5034450;28;19917;-75
2022/12/22 04:25:19;;;;;;;;;;;;;;;3.87;52.55;99077.16;5017710;28;19920;-76
2022/12/22 04:27:45;;;;;;;;;;;;;;;3.87;52.17;99074.56;5052168;28;19943;-76
2022/12/22 04:30:10;;;;;;;;;;;;;;;3.87;52.35;99072.00;5034066;28;19920;-77
2022/12/22 04:32:36;;;;;;;;;;;;;;;3.85;52.50;99077.22;5017877;28;19917;-76
2022/12/22 04:35:01;;;;;;;;;;;;;;;3.83;52.20;99076.47;5052164;28;19917;-76
2022/12/22 04:37:26;;;;;;;;;;;;;;;3.82;52.34;99077.34;5033375;28;19920;-77
2022/12/22 04:39:52;;;;;;;;;;;;;;;3.83;52.70;99079.03;5052244;28;19968;-77
2022/12/22 04:42:17;;;;;;;;;;;;;;;3.81;52.50;99075.66;5052039;28;19967;-78
2022/12/22 04:44:42;;;;;;;;;;;;;;;3.79;52.52;99078.31;5034463;28;19920;-79
2022/12/22 04:47:08;;;;;;;;;;;;;;;3.79;52.37;99083.47;5034439;28;19920;-75
2022/12/22 04:49:34;;;;;;;;;;;;;;;3.95;63.83;99077.66;5052220;28;19975;-75
2022/12/22 04:51:59;;;;;;;;;;;;;;;4.71;74.91;99081.13;5052841;28;20289;-75
2022/12/22 04:54:24;;;;;;;;;;;;;;;4.64;67.82;99076.31;5017203;28;19921;-74
2022/12/22 04:56:50;;;;;;;;;;;;;;;4.52;62.52;99070.78;5017389;28;19924;-72
2022/12/22 04:59:15;;;;;;;;;;;;;;;4.42;60.69;99071.28;5017379;28;19964;-74
2022/12/22 05:01:40;;;;;;;;;;;;;;;4.32;59.99;99073.44;5034252;28;19917;-73
2022/12/22 05:04:06;;;;;;;;;;;;;;;4.25;59.66;99066.88;5017539;28;19917;-73
2022/12/22 05:06:31;;;;;;;;;;;;;;;4.18;58.81;99071.47;5033844;28;19924;-72
2022/12/22 05:08:56;;;;;;;;;;;;;;;4.12;58.50;99071.75;5051742;28;19923;-72
2022/12/22 05:11:21;;;;;;;;;;;;;;;4.06;58.41;99075.44;5033881;28;20296;-72
2022/12/22 05:13:47;;;;;;;;;;;;;;;4.01;58.00;99074.81;5034056;28;19917;-74
2022/12/22 05:16:13;;;;;;;;;;;;;;;3.97;57.83;99076.69;5037258;28;19917;-73
2022/12/22 05:18:38;;;;;;;;;;;;;;;3.94;57.64;99076.81;5021018;28;19956;-73
2022/12/22 05:21:08;;;;;;;;;;;;;;;3.91;57.36;99084.69;5037651;28;19916;-74
2022/12/22 05:23:33;;;;;;;;;;;;;;;3.89;57.07;99083.06;5020827;28;19928;-76
2022/12/22 05:25:59;;;;;;;;;;;;;;;3.87;56.97;99077.16;5020787;28;19917;-74
2022/12/22 05:28:24;;;;;;;;;;;;;;;3.83;56.89;99079.03;5037138;28;19917;-74
2022/12/22 05:30:49;;;;;;;;;;;;;;;3.82;56.47;99074.75;5055515;28;19935;-74
2022/12/22 05:33:15;;;;;;;;;;;;;;;3.80;56.23;99072.25;5055361;28;20304;-76
2022/12/22 05:35:40;;;;;;;;;;;;;;;3.80;55.85;99066.25;5037229;28;19952;-73
2022/12/22 05:38:05;;;;;;;;;;;;;;;3.77;55.65;99077.53;5036102;28;19979;-73
2022/12/22 05:40:30;;;;;;;;;;;;;;;3.75;55.89;99069.03;5020226;28;19926;-74
2022/12/22 05:42:56;;;;;;;;;;;;;;;3.74;55.34;99066.53;5054764;28;19920;-73
2022/12/22 05:45:21;;;;;;;;;;;;;;;3.74;55.58;99063.94;5054635;28;19943;-74
2022/12/22 05:47:47;;;;;;;;;;;;;;;3.75;55.31;99066.44;5037146;28;19924;-73
2022/12/22 05:50:13;;;;;;;;;;;;;;;3.78;55.20;99070.66;5036889;28;19917;-74
2022/12/22 05:52:38;;;;;;;;;;;;;;;3.85;55.02;99068.66;5020385;28;20359;-75
2022/12/22 05:55:04;;;;;;;;;;;;;;;4.04;54.52;99072.09;5020055;28;19955;-73
2022/12/22 05:57:29;;;;;;;;;;;;;;;4.31;53.84;99075.19;5036444;28;19932;-74
2022/12/22 05:59:55;;;;;;;;;;;;;;;4.65;53.22;99065.03;5036771;28;19996;-74
2022/12/22 06:02:20;;;;;;;;;;;;;;;5.01;52.72;99069.38;5036846;28;19921;-73
2022/12/22 06:04:45;;;;;;;;;;;;;;;5.41;51.83;99067.44;5036881;28;19917;-75
2022/12/22 06:07:11;;;;;;;;;;;;;;;5.89;51.02;99084.00;5036697;28;19917;-74
2022/12/22 06:09:36;;;;;;;;;;;;;;;6.47;49.79;99085.31;5036689;28;19948;-76
2022/12/22 06:12:01;;;;;;;;;;;;;;;7.14;48.13;99085.09;5037010;28;19916;-75
2022/12/22 06:14:27;;;;;;;;;;;;;;;7.92;46.39;99090.13;5020115;28;19925;-75
2022/12/22 06:16:52;;;;;;;;;;;;;;;8.75;44.59;99092.03;5036047;28;19917;-75
2022/12/22 06:19:17;;;;;;;;;;;;;;;9.63;42.78;99091.59;5019816;28;20007;-76
2022/12/22 06:21:42;;;;;;;;;;;;;;;10.39;40.25;99099.50;5054470;28;19923;-75
2022/12/22 06:24:08;;;;;;;;;;;;;;;11.11;38.58;99089.16;5054263;28;19975;-74
2022/12/22 06:26:33;;;;;;;;;;;;;;;11.74;37.14;99089.72;5036120;28;19964;-76
2022/12/22 06:28:58;;;;;;;;;;;;;;;12.29;36.20;99091.72;5036384;28;20384;-75
2022/12/22 06:31:24;;;;;;;;;;;;;;;12.73;35.35;99092.63;5036009;28;19917;-76
2022/12/22 06:33:49;;;;;;;;;;;;;;;13.04;34.53;99098.00;5036522;28;19920;-75
2022/12/22 06:36:14;;;;;;;;;;;;;;;13.19;34.52;99096.78;5036547;28;19917;-76
2022/12/22 06:38:40;;;;;;;;;;;;;;;13.23;34.71;99093.91;5036178;28;20011;-75
2022/12/22 06:41:05;;;;;;;;;;;;;;;13.23;34.42;99096.53;5035993;28;19924;-81
2022/12/22 06:43:30;;;;;;;;;;;;;;;13.28;35.04;99095.19;5036517;28;19920;-82
2022/12/22 06:45:57;;;;;;;;;;;;;;;13.80;48.26;99104.97;5059675;28;20011;-80
2022/12/22 06:48:22;;;;;;;;;;;;;;;14.25;48.14;99108.13;5029457;28;19971;-82
2022/12/22 06:50:47;;;;;;;;;;;;;;;14.53;41.67;99108.38;5036481;28;19917;-81
2022/12/22 06:53:12;;;;;;;;;;;;;;;14.84;39.11;99109.16;5035805;28;19928;-82
2022/12/22 06:55:38;;;;;;;;;;;;;;;15.05;38.01;99102.16;5053942;28;19971;-79
2022/12/22 06:58:03;;;;;;;;;;;;;;;15.26;36.60;99109.91;5019237;28;20003;-82
2022/12/22 07:00:29;;;;;;;;;;;;;;;15.47;35.37;99110.63;5035952;28;20406;-81
2022/12/22 07:02:54;;;;;;;;;;;;;;;15.70;36.00;99111.16;5054175;28;19986;-76
2022/12/22 07:05:19;;;;;;;;;;;;;;;16.12;42.97;99119.69;5035884;28;20387;-80
2022/12/22 07:07:45;;;;;;;;;;;;;;;16.38;39.49;99111.97;5053201;28;20012;-81
2022/12/22 07:10:10;;;;;;;;;;;;;;;16.56;37.12;99112.03;5053301;28;20339;-81
2022/12/22 07:12:35;;;;;;;;;;;;;;;16.73;35.66;99118.31;5018942;28;20015;-82
2022/12/22 07:15:01;;;;;;;;;;;;;;;16.97;34.82;99112.53;5057154;28;19948;-83
2022/12/22 07:17:26;;;;;;;;;;;;;;;17.26;33.90;99116.75;5019279;28;19916;-84
2022/12/22 07:19:51;;;;;;;;;;;;;;;17.56;33.54;99122.63;5036031;28;19916;-78
2022/12/22 07:22:17;;;;;;;;;;;;;;;17.88;33.60;99114.16;5035173;28;19971;-79
2022/12/22 07:24:42;;;;;;;;;;;;;;;18.15;33.62;99122.91;5053318;28;19971;-77
2022/12/22 07:27:07;;;;;;;;;;;;;;;18.36;34.58;99120.72;5018025;28;19975;-78
2022/12/22 07:29:35;;;;;;;;;;;;;;;18.55;36.46;99121.44;5034354;28;19917;-79
2022/12/22 07:32:00;;;;;;;;;;;;;;;18.75;41.02;99119.38;5018141;28;19917;-78
2022/12/22 07:34:25;;;;;;;;;;;;;;;18.98;41.86;99119.66;5034928;28;19924;-80
2022/12/22 07:36:50;;;;;;;;;;;;;;;18.71;36.44;99116.22;5017632;28;19921;-81
2022/12/22 07:39:16;;;;;;;;;;;;;;;18.60;36.42;99116.53;5052673;28;19944;-85
2022/12/22 07:44:36;;;;;;;;;;;;;;;18.44;35.81;99114.66;4991564;28;19918;-81
2022/12/22 07:47:01;;;;;;;;;;;;;;;18.44;36.80;99107.53;4991104;28;19918;-84
2022/12/22 07:52:10;;;;;;;;;;;;;;;18.44;34.68;99119.94;4996514;28;19933;-80
2022/12/22 07:54:35;;;;;;;;;;;;;;;18.33;34.80;99115.75;5010973;28;20300;-91
2022/12/22 07:57:01;;;;;;;;;;;;;;;18.40;39.24;99118.56;5012463;28;19924;-79
2022/12/22 07:59:26;;;;;;;;;;;;;;;18.33;36.51;99114.91;5010641;28;19918;-84
2022/12/22 08:01:51;;;;;;;;;;;;;;;18.48;36.72;99112.50;4994060;28;19918;-79
2022/12/22 08:04:17;;;;;;;;;;;;;;;18.32;31.98;99113.25;5009897;28;19917;-79
2022/12/22 08:06:42;;;;;;;;;;;;;;;18.32;35.48;99115.91;4993819;28;19925;-78
2022/12/22 08:09:07;;;;;;;;;;;;;;;18.64;36.80;99117.84;4994125;28;20455;-77
2022/12/22 08:11:33;;;;;;;;;;;;;;;18.67;29.18;99114.06;5009812;28;20722;-76
2022/12/22 08:13:58;;;;;;;;;;;;;;;18.62;27.74;99120.66;4992463;28;20355;-77
2022/12/22 08:16:23;;;;;;;;;;;;;;;18.67;26.19;99124.63;4990665;28;20099;-75
2022/12/22 08:18:49;;;;;;;;;;;;;;;18.67;24.85;99116.72;4990562;28;19917;-80
2022/12/22 08:21:14;;;;;;;;;;;;;;;18.88;35.44;99119.78;4999195;28;19947;-74
2022/12/22 08:23:39;;;;;;;;;;;;;;;18.87;25.94;99115.47;5014786;28;19939;-76
2022/12/22 08:26:06;;;;;;;;;;;;;;;18.70;25.46;99113.75;5037999;28;20380;-76
2022/12/22 08:28:32;;;;;;;;;;;;;;;18.67;25.00;99112.22;5013717;28;19925;-76
2022/12/22 08:30:58;;;;;;;;;;;;;;;18.78;24.82;99101.34;5017721;28;19986;-77
2022/12/22 08:33:23;;;;;;;;;;;;;;;18.76;24.48;99100.69;5034341;28;20387;-82
2022/12/22 08:35:48;;;;;;;;;;;;;;;18.70;24.71;99105.81;5052047;28;19917;-82
2022/12/22 08:38:13;;;;;;;;;;;;;;;18.67;24.76;99098.19;5052145;28;19921;-80
2022/12/22 08:40:40;;;;;;;;;;;;;;;18.71;24.51;99097.72;5034382;28;20486;-77
2022/12/22 08:43:06;;;;;;;;;;;;;;;18.61;24.46;99097.84;5018779;28;19923;-78
2022/12/22 08:45:32;;;;;;;;;;;;;;;18.60;24.29;99092.72;5017262;28;20272;-77
2022/12/22 08:47:57;;;;;;;;;;;;;;;18.61;24.35;99092.56;5017529;28;19917;-75
2022/12/22 08:50:22;;;;;;;;;;;;;;;18.87;35.44;99090.84;5056492;28;19924;-86
2022/12/22 08:52:47;;;;;;;;;;;;;;;19.29;32.94;99087.25;5038334;28;20346;-73
2022/12/22 08:55:13;;;;;;;;;;;;;;;18.83;28.24;99084.19;5055630;28;19920;-73
2022/12/22 08:57:38;;;;;;;;;;;;;;;18.77;34.01;99077.72;5055723;28;20352;-73
2022/12/22 09:00:04;;;;;;;;;;;;;;;18.47;30.96;99081.75;5055661;28;19967;-73
2022/12/22 09:02:30;;;;;;;;;;;;;;;19.02;31.88;99069.88;5055725;28;19917;-73
2022/12/22 09:04:56;;;;;;;;;;;;;;;19.43;27.17;99077.84;5055946;28;19974;-74
2022/12/22 09:07:21;;;;;;;;;;;;;;;19.37;31.20;99071.41;5056096;28;20463;-79
2022/12/22 09:09:46;;;;;;;;;;;;;;;19.87;29.71;99065.06;5038452;28;19916;-79
2022/12/22 09:12:12;;;;;;;;;;;;;;;20.28;27.47;99063.31;5055923;28;20380;-76
2022/12/22 09:14:37;;;;;;;;;;;;;;;20.64;25.74;99054.88;5022126;28;19971;-83
2022/12/22 09:17:02;;;;;;;;;;;;;;;20.95;24.50;99050.38;5056648;28;20298;-78
2022/12/22 09:19:27;;;;;;;;;;;;;;;21.24;23.58;99045.38;5056060;28;20003;-78
2022/12/22 09:21:53;;;;;;;;;;;;;;;21.45;28.23;99040.19;5037454;28;20391;-74
2022/12/22 09:24:18;;;;;;;;;;;;;;;21.69;29.37;99036.50;5021148;28;19923;-75
2022/12/22 09:26:44;;;;;;;;;;;;;;;21.98;28.15;99034.03;5037884;28;20023;-76
2022/12/22 09:29:09;;;;;;;;;;;;;;;22.34;26.87;99028.81;5020987;28;19923;-74
2022/12/22 09:31:34;;;;;;;;;;;;;;;22.60;27.91;99022.19;5021084;28;20280;-74
2022/12/22 09:34:00;;;;;;;;;;;;;;;22.76;27.46;99026.44;5037970;28;19917;-77
2022/12/22 09:36:26;;;;;;;;;;;;;;;23.17;25.80;99022.34;5037518;28;20340;-81
2022/12/22 09:38:51;;;;;;;;;;;;;;;24.01;22.86;99006.34;5037565;28;19971;-79
2022/12/22 09:41:23;;;;;;;;;;;;;;;24.79;21.23;99009.72;5037875;28;19916;-80
2022/12/22 09:43:49;;;;;;;;;;;;;;;25.60;19.44;99000.69;5038030;28;19921;-80
2022/12/22 09:46:21;;;;;;;;;;;;;;;26.49;18.04;99009.91;5055066;28;19923;-80
2022/12/22 09:48:46;;;;;;;;;;;;;;;27.67;16.51;99001.44;5038109;28;19917;-88
2022/12/22 09:51:12;;;;;;;;;;;;;;;28.24;15.71;98996.66;5038208;28;19917;-78
2022/12/22 09:53:37;;;;;;;;;;;;;;;29.16;14.88;99000.13;5038396;28;19963;-85
2022/12/22 09:56:02;;;;;;;;;;;;;;;29.48;14.15;98992.59;5021351;28;19917;-80
2022/12/22 09:58:29;;;;;;;;;;;;;;;29.89;14.01;98990.81;5037180;28;19924;-80
2022/12/22 10:01:15;;;;;;;;;;;;;;;30.24;13.62;98984.50;5019385;28;20320;-82
2022/12/22 10:03:40;;;;;;;;;;;;;;;30.91;13.36;98976.84;4991835;28;19918;-82
2022/12/22 10:06:14;;;;;;;;;;;;;;;30.88;13.28;98982.72;4993246;28;20289;-81
2022/12/22 10:08:40;;;;;;;;;;;;;;;31.34;12.55;98970.81;4993344;28;19918;-82
2022/12/22 10:11:05;;;;;;;;;;;;;;;31.52;12.35;98967.00;4977526;28;20020;-81
2022/12/22 10:13:30;;;;;;;;;;;;;;;31.64;12.30;98956.13;4977664;28;19918;-82
2022/12/22 10:15:56;;;;;;;;;;;;;;;31.61;11.98;98955.81;4976994;28;19917;-82
2022/12/22 10:18:22;;;;;;;;;;;;;;;31.37;12.27;98962.22;4977417;28;20440;-83
2022/12/22 10:21:06;;;;;;;;;;;;;;;30.90;12.32;98957.16;4977308;28;19918;-86
2022/12/22 10:23:34;;;;;;;;;;;;;;;30.34;13.01;98954.25;4993479;28;19981;-83
2022/12/22 10:26:04;;;;;;;;;;;;;;;29.57;13.21;98947.31;4977238;28;20508;-83
2022/12/22 10:28:35;;;;;;;;;;;;;;;28.75;14.18;98942.72;4977591;28;20396;-82
2022/12/22 10:31:13;;;;;;;;;;;;;;;27.88;14.91;98936.63;4977086;28;20016;-83
2022/12/22 10:33:39;;;;;;;;;;;;;;;27.12;15.45;98949.34;4993223;28;19949;-82
2022/12/22 10:36:04;;;;;;;;;;;;;;;26.54;16.13;98945.81;4993037;28;19957;-84
2022/12/22 10:38:29;;;;;;;;;;;;;;;25.88;16.44;98941.59;4976254;28;19953;-83
2022/12/22 10:41:00;;;;;;;;;;;;;;;25.34;17.19;98937.44;5027659;28;19974;-83
2022/12/22 10:43:26;;;;;;;;;;;;;;;24.87;17.74;98932.91;5019677;28;20011;-82
2022/12/22 10:45:51;;;;;;;;;;;;;;;24.51;18.16;98931.41;5036549;28;19989;-82
2022/12/22 10:48:25;;;;;;;;;;;;;;;24.11;18.54;98938.50;5020033;28;19928;-82
2022/12/22 10:50:50;;;;;;;;;;;;;;;23.65;18.74;98924.72;5054321;28;19975;-82
2022/12/22 10:53:15;;;;;;;;;;;;;;;23.33;19.46;98923.53;5036516;28;19924;-83
2022/12/22 10:55:42;;;;;;;;;;;;;;;22.99;19.63;98922.41;5020232;28;19991;-82
2022/12/22 10:58:14;;;;;;;;;;;;;;;22.75;19.76;98921.00;5037046;28;19924;-83
2022/12/22 11:00:40;;;;;;;;;;;;;;;22.42;20.28;98926.81;5054237;28;19916;-82
2022/12/22 11:03:06;;;;;;;;;;;;;;;22.18;20.30;98918.16;5019714;28;20281;-78
2022/12/22 11:05:32;;;;;;;;;;;;;;;21.92;20.51;98912.53;5036405;28;20020;-82
2022/12/22 11:07:59;;;;;;;;;;;;;;;21.69;20.68;98916.13;5020627;28;20003;-85
2022/12/22 11:10:26;;;;;;;;;;;;;;;21.47;20.97;98907.22;5036700;28;19916;-85
2022/12/22 11:12:55;;;;;;;;;;;;;;;21.24;21.41;98904.69;5035192;28;19924;-83
2022/12/22 11:15:26;;;;;;;;;;;;;;;20.96;21.44;98905.25;5053896;28;19917;-83
2022/12/22 11:18:01;;;;;;;;;;;;;;;20.68;22.10;98905.00;5053623;28;19916;-84
2022/12/22 11:20:31;;;;;;;;;;;;;;;20.51;22.31;98905.09;5053611;28;19917;-83
2022/12/22 11:23:15;;;;;;;;;;;;;;;20.37;22.50;98897.91;5035828;28;19917;-83
2022/12/22 11:25:44;;;;;;;;;;;;;;;20.21;22.82;98893.56;5053455;28;20292;-84
2022/12/22 11:28:09;;;;;;;;;;;;;;;20.02;22.55;98897.44;5019707;28;20314;-83
2022/12/22 11:30:41;;;;;;;;;;;;;;;19.80;22.78;98894.59;5035769;28;19917;-85
2022/12/22 11:33:06;;;;;;;;;;;;;;;19.59;23.26;98895.13;5053735;28;19963;-83
2022/12/22 11:36:01;;;;;;;;;;;;;;;19.45;23.32;98891.38;5053931;28;19960;-83
2022/12/22 11:38:26;;;;;;;;;;;;;;;19.29;23.29;98884.31;5040093;28;19959;-82
2022/12/22 11:40:54;;;;;;;;;;;;;;;19.06;23.82;98883.38;5035739;28;19960;-83
2022/12/22 11:43:24;;;;;;;;;;;;;;;18.83;24.16;98885.84;5053670;28;19917;-82
2022/12/22 11:46:09;;;;;;;;;;;;;;;18.72;24.26;98882.56;5035398;28;20015;-83
2022/12/22 11:48:39;;;;;;;;;;;;;;;18.46;24.60;98877.41;5019238;28;19952;-84
2022/12/22 11:51:30;;;;;;;;;;;;;;;18.33;24.88;98875.25;5035401;28;19917;-84
2022/12/22 11:53:59;;;;;;;;;;;;;;;18.19;25.09;98875.91;5012466;28;19925;-84
2022/12/22 11:56:44;;;;;;;;;;;;;;;18.02;25.42;98875.03;5035286;28;19944;-85
2022/12/22 11:59:28;;;;;;;;;;;;;;;17.82;25.65;98870.00;5052575;28;19917;-84
2022/12/22 12:02:17;;;;;;;;;;;;;;;17.68;25.65;98862.72;5035727;28;19924;-84
2022/12/22 12:04:48;;;;;;;;;;;;;;;17.56;25.73;98863.97;4975449;28;19976;-83
2022/12/22 12:07:13;;;;;;;;;;;;;;;17.37;25.86;98863.22;4991722;28;19949;-83
2022/12/22 12:09:57;;;;;;;;;;;;;;;17.21;26.26;98866.59;4991585;28;20388;-84
2022/12/22 12:12:26;;;;;;;;;;;;;;;17.04;26.58;98865.66;4991658;28;20392;-86
2022/12/22 12:14:52;;;;;;;;;;;;;;;16.89;26.93;98867.22;4974499;28;20459;-84
2022/12/22 12:17:20;;;;;;;;;;;;;;;16.67;26.85;98858.81;4991513;28;19957;-84
2022/12/22 12:19:45;;;;;;;;;;;;;;;16.40;27.21;98862.38;4959267;28;19928;-83
2022/12/22 12:22:18;;;;;;;;;;;;;;;16.31;27.34;98864.09;4991728;28;19921;-84
2022/12/22 12:25:10;;;;;;;;;;;;;;;16.17;27.42;98856.72;4973931;28;19918;-83
2022/12/22 12:27:35;;;;;;;;;;;;;;;16.04;27.62;98860.53;4914147;29;19923;-84
2022/12/22 12:30:03;;;;;;;;;;;;;;;15.94;27.85;98861.59;4914842;29;19929;-83
2022/12/22 12:32:30;;;;;;;;;;;;;;;15.79;27.89;98863.91;4914559;29;20367;-83
2022/12/22 12:35:16;;;;;;;;;;;;;;;15.70;28.25;98865.56;4914531;29;19923;-83
2022/12/22 12:37:41;;;;;;;;;;;;;;;15.54;28.21;98867.03;4914218;29;19927;-84
2022/12/22 12:40:09;;;;;;;;;;;;;;;15.41;28.56;98863.09;4914580;29;19919;-83
2022/12/22 12:42:41;;;;;;;;;;;;;;;15.28;28.73;98861.59;4947461;29;20436;-84
2022/12/22 12:45:24;;;;;;;;;;;;;;;15.00;29.14;98858.09;4952729;29;19954;-84
2022/12/22 12:47:50;;;;;;;;;;;;;;;14.79;29.38;98864.34;4953011;29;20369;-84
2022/12/22 12:50:44;;;;;;;;;;;;;;;14.62;29.92;98865.88;4952495;29;19970;-83
2022/12/22 12:53:09;;;;;;;;;;;;;;;14.41;30.33;98867.81;4914331;29;20017;-84
2022/12/22 12:55:37;;;;;;;;;;;;;;;14.27;30.64;98867.25;4914162;29;20473;-84
2022/12/22 12:58:03;;;;;;;;;;;;;;;14.16;31.02;98869.19;4914707;29;19930;-84
2022/12/22 13:00:31;;;;;;;;;;;;;;;14.05;31.33;98867.50;4914264;29;20018;-84
2022/12/22 13:03:03;;;;;;;;;;;;;;;13.88;31.48;98863.75;4914430;29;20406;-84
2022/12/22 13:05:32;;;;;;;;;;;;;;;13.75;31.69;98858.75;4981778;28;20476;-84
2022/12/22 13:08:10;;;;;;;;;;;;;;;13.59;32.36;98866.31;4991382;28;19922;-83
2022/12/22 13:10:36;;;;;;;;;;;;;;;13.45;32.37;98864.88;4974906;28;19924;-85
2022/12/22 13:13:01;;;;;;;;;;;;;;;13.32;32.89;98865.88;4991187;28;19922;-84
2022/12/22 13:15:27;;;;;;;;;;;;;;;13.23;33.47;98866.66;4974626;28;20001;-83
2022/12/22 13:17:53;;;;;;;;;;;;;;;13.13;32.97;98863.19;4974550;28;20379;-83
2022/12/22 13:20:36;;;;;;;;;;;;;;;13.06;33.26;98860.22;4991296;28;19945;-83
2022/12/22 13:23:02;;;;;;;;;;;;;;;12.95;33.45;98863.78;4974973;28;19918;-83
2022/12/22 13:25:47;;;;;;;;;;;;;;;12.91;33.81;98866.78;4974797;28;19917;-83
2022/12/22 13:28:13;;;;;;;;;;;;;;;12.81;33.67;98862.31;4990171;28;19918;-82
2022/12/22 13:30:39;;;;;;;;;;;;;;;12.75;33.68;98857.59;5031805;28;20409;-83
2022/12/22 13:33:04;;;;;;;;;;;;;;;12.69;33.77;98858.09;5017875;28;20307;-85
2022/12/22 13:35:37;;;;;;;;;;;;;;;12.66;33.73;98853.94;5019131;28;20011;-85
2022/12/22 13:38:02;;;;;;;;;;;;;;;12.63;33.66;98851.59;5021574;28;20307;-82
2022/12/22 13:40:29;;;;;;;;;;;;;;;12.58;33.75;98850.31;5055760;28;19920;-83
2022/12/22 13:42:55;;;;;;;;;;;;;;;12.48;33.81;98845.00;5037987;28;19917;-84
2022/12/22 13:45:32;;;;;;;;;;;;;;;12.39;34.07;98845.75;5037808;28;19927;-84
2022/12/22 13:47:59;;;;;;;;;;;;;;;12.26;34.16;98840.69;5055762;28;19924;-83
2022/12/22 13:50:26;;;;;;;;;;;;;;;12.18;34.53;98846.53;5038584;28;19999;-83
2022/12/22 13:52:52;;;;;;;;;;;;;;;12.12;34.79;98845.25;5037923;28;19975;-84
2022/12/22 13:55:18;;;;;;;;;;;;;;;12.04;34.99;98839.81;5037684;28;20348;-84
2022/12/22 13:57:43;;;;;;;;;;;;;;;11.98;34.72;98842.91;5037672;28;19917;-83
2022/12/22 14:00:24;;;;;;;;;;;;;;;11.89;34.77;98839.25;5040082;28;19975;-83
2022/12/22 14:02:49;;;;;;;;;;;;;;;11.80;35.27;98845.19;5037724;28;20362;-83
2022/12/22 14:05:15;;;;;;;;;;;;;;;11.70;34.98;98846.88;5036950;28;19917;-85
2022/12/22 14:07:55;;;;;;;;;;;;;;;11.61;35.28;98839.75;5037360;28;20101;-83
2022/12/22 14:10:28;;;;;;;;;;;;;;;11.49;35.71;98838.94;5037205;28;20454;-84
2022/12/22 14:12:53;;;;;;;;;;;;;;;11.40;36.02;98835.25;5020588;28;20375;-84
2022/12/22 14:15:19;;;;;;;;;;;;;;;11.30;36.38;98832.53;5037088;28;20007;-83
2022/12/22 14:17:44;;;;;;;;;;;;;;;11.21;36.99;98833.22;5036660;28;19927;-83
2022/12/22 14:20:19;;;;;;;;;;;;;;;11.12;37.27;98834.78;5037745;28;19995;-84
2022/12/22 14:22:45;;;;;;;;;;;;;;;11.02;38.01;98839.03;5036995;28;19924;-84
2022/12/22 14:25:15;;;;;;;;;;;;;;;10.92;38.07;98832.88;5036929;28;19924;-82
2022/12/22 14:27:42;;;;;;;;;;;;;;;10.83;38.32;98837.84;5037219;28;19975;-83
2022/12/22 14:30:15;;;;;;;;;;;;;;;10.73;38.78;98836.88;5020498;28;20380;-84
2022/12/22 14:32:44;;;;;;;;;;;;;;;10.65;38.84;98837.44;5020667;28;20292;-84
2022/12/22 14:35:19;;;;;;;;;;;;;;;10.54;39.13;98840.03;5020606;28;20004;-84
2022/12/22 14:37:54;;;;;;;;;;;;;;;10.44;39.46;98839.88;5054507;28;19928;-84
2022/12/22 14:40:32;;;;;;;;;;;;;;;10.36;39.53;98842.25;5037017;28;20368;-85
2022/12/22 14:42:58;;;;;;;;;;;;;;;10.28;39.81;98845.38;5020446;28;19929;-82
2022/12/22 14:45:23;;;;;;;;;;;;;;;10.19;39.90;98842.63;5036574;28;20384;-84
2022/12/22 14:47:48;;;;;;;;;;;;;;;10.11;40.10;98837.94;5019833;28;19916;-86
2022/12/22 14:50:14;;;;;;;;;;;;;;;10.02;40.18;98836.00;5037024;28;19917;-84
2022/12/22 14:52:43;;;;;;;;;;;;;;;9.92;40.47;98841.88;5036547;28;19976;-84
2022/12/22 14:55:29;;;;;;;;;;;;;;;9.84;40.33;98839.00;5036566;28;20003;-83
2022/12/22 14:57:55;;;;;;;;;;;;;;;9.76;40.69;98841.31;5046441;28;19916;-83
2022/12/22 15:00:21;;;;;;;;;;;;;;;9.68;41.18;98833.22;5019708;28;20406;-85
2022/12/22 15:02:52;;;;;;;;;;;;;;;9.60;41.33;98838.97;5054129;28;19916;-79
2022/12/22 15:05:24;;;;;;;;;;;;;;;9.53;41.43;98830.72;5020128;28;19917;-79
2022/12/22 15:07:50;;;;;;;;;;;;;;;9.47;41.51;98832.94;5035824;28;20380;-80
2022/12/22 15:10:15;;;;;;;;;;;;;;;9.51;52.76;98835.22;5036795;28;20003;-79
2022/12/22 15:12:40;;;;;;;;;;;;;;;9.50;48.25;98828.34;5036354;28;20395;-83
2022/12/22 15:15:18;;;;;;;;;;;;;;;9.46;46.81;98833.91;5035929;28;19917;-85
2022/12/22 15:17:44;;;;;;;;;;;;;;;9.39;45.94;98842.16;5053806;28;19917;-82
2022/12/22 15:20:12;;;;;;;;;;;;;;;9.42;51.98;98846.28;5054031;28;19916;-81
2022/12/22 15:22:38;;;;;;;;;;;;;;;9.43;51.52;98855.78;5053667;28;20015;-83
2022/12/22 15:25:10;;;;;;;;;;;;;;;9.39;48.85;98851.72;5019214;28;20026;-83
2022/12/22 15:27:35;;;;;;;;;;;;;;;9.28;47.34;98852.44;5036065;28;19917;-81
2022/12/22 15:30:01;;;;;;;;;;;;;;;9.21;46.64;98859.03;5035697;28;20374;-80
2022/12/22 15:32:28;;;;;;;;;;;;;;;9.13;46.23;98866.56;5053432;28;19917;-85
2022/12/22 15:34:53;;;;;;;;;;;;;;;9.05;45.90;98864.47;5036936;28;20394;-79
2022/12/22 15:37:18;;;;;;;;;;;;;;;8.97;45.58;98861.56;5053643;28;19921;-79
2022/12/22 15:39:44;;;;;;;;;;;;;;;8.90;45.05;98860.28;5018967;28;19924;-83
2022/12/22 15:42:09;;;;;;;;;;;;;;;8.83;44.99;98865.06;5035167;28;19980;-79
2022/12/22 15:44:34;;;;;;;;;;;;;;;8.78;44.76;98861.97;5035293;28;19917;-82
2022/12/22 15:46:59;;;;;;;;;;;;;;;8.70;44.55;98859.88;5018970;28;19917;-81
2022/12/22 15:49:25;;;;;;;;;;;;;;;8.64;44.76;98861.09;5053069;28;20356;-86
2022/12/22 15:51:52;;;;;;;;;;;;;;;8.59;44.77;98857.97;5053677;28;19931;-84
2022/12/22 15:54:17;;;;;;;;;;;;;;;8.54;45.01;98854.00;5052624;28;19956;-82
2022/12/22 15:56:42;;;;;;;;;;;;;;;8.48;44.73;98850.88;5035168;28;20014;-81
2022/12/22 15:59:18;;;;;;;;;;;;;;;8.44;45.24;98853.75;5034733;28;19952;-83
2022/12/22 16:01:43;;;;;;;;;;;;;;;8.39;45.24;98848.00;5035300;28;20026;-80
2022/12/22 16:04:09;;;;;;;;;;;;;;;8.34;45.23;98845.69;5017912;28;19952;-80
2022/12/22 16:06:35;;;;;;;;;;;;;;;8.31;44.87;98845.91;5034921;28;20308;-81
2022/12/22 16:09:01;;;;;;;;;;;;;;;8.27;45.07;98852.22;5035215;28;19947;-80
2022/12/22 16:11:26;;;;;;;;;;;;;;;8.23;45.36;98855.97;5018412;28;19917;-79
2022/12/22 16:13:51;;;;;;;;;;;;;;;8.20;45.48;98858.78;5018147;28;19917;-79
2022/12/22 16:16:17;;;;;;;;;;;;;;;8.17;45.19;98861.56;5018119;28;19917;-79
2022/12/22 16:18:42;;;;;;;;;;;;;;;8.12;45.33;98862.69;5033955;28;19971;-78
2022/12/22 16:21:14;;;;;;;;;;;;;;;8.09;45.63;98859.47;5014635;28;19949;-72
2022/12/22 16:23:40;;;;;;;;;;;;;;;8.05;45.30;98863.16;5015067;28;20020;-75
2022/12/22 16:26:05;;;;;;;;;;;;;;;8.02;45.89;98869.41;5031223;28;20020;-76
2022/12/22 16:28:31;;;;;;;;;;;;;;;7.97;46.01;98864.50;4998024;28;19924;-73
2022/12/22 16:30:57;;;;;;;;;;;;;;;7.94;46.17;98866.47;5014525;28;20392;-73